sensor_id;sensor_type;location;lat;lon;timestamp;pressure;altitude;pressure_sealevel;temperature;humidity
54808;BME280;40708;50.364;7.550;2023-03-19T00:00:04;100141.91;;;10.63;100.00
54808;BME280;40708;50.364;7.550;2023-03-19T00:02:32;100142.81;;;10.65;100.00
54808;BME280;40708;50.364;7.550;2023-03-19T00:04:58;100150.75;;;10.66;100.00
54808;BME280;40708;50.364;7.550;2023-03-19T00:07:23;100146.34;;;10.62;100.00
54808;BME280;40708;50.364;7.550;2023-03-19T00:09:48;100149.00;;;10.58;100.00
54808;BME280;40708;50.364;7.550;2023-03-19T00:12:14;100149.91;;;10.54;100.00
54808;BME280;40708;50.364;7.550;2023-03-19T00:14:39;100153.47;;;10.50;100.00
54808;BME280;40708;50.364;7.550;2023-03-19T00:17:04;100160.53;;;10.46;100.00
54808;BME280;40708;50.364;7.550;2023-03-19T00:19:30;100160.53;;;10.51;100.00
54808;BME280;40708;50.364;7.550;2023-03-19T00:21:55;100159.66;;;10.50;100.00
54808;BME280;40708;50.364;7.550;2023-03-19T00:24:21;100165.81;;;10.52;100.00
54808;BME280;40708;50.364;7.550;2023-03-19T00:26:46;100163.19;;;10.49;100.00
54808;BME280;40708;50.364;7.550;2023-03-19T00:29:12;100164.94;;;10.52;100.00
54808;BME280;40708;50.364;7.550;2023-03-19T00:31:39;100162.28;;;10.52;100.00
54808;BME280;40708;50.364;7.550;2023-03-19T00:34:04;100162.28;;;10.52;100.00
54808;BME280;40708;50.364;7.550;2023-03-19T00:36:30;100159.66;;;10.50;100.00
54808;BME280;40708;50.364;7.550;2023-03-19T00:38:55;100157.00;;;10.50;100.00
54808;BME280;40708;50.364;7.550;2023-03-19T00:41:21;100166.72;;;10.50;100.00
54808;BME280;40708;50.364;7.550;2023-03-19T00:43:52;100172.94;;;10.49;100.00
54808;BME280;40708;50.364;7.550;2023-03-19T00:46:18;100183.53;;;10.47;100.00
54808;BME280;40708;50.364;7.550;2023-03-19T00:48:43;100182.66;;;10.45;100.00
54808;BME280;40708;50.364;7.550;2023-03-19T00:51:09;100185.31;;;10.45;100.00
54808;BME280;40708;50.364;7.550;2023-03-19T00:53:42;100187.09;;;10.42;100.00
54808;BME280;40708;50.364;7.550;2023-03-19T00:56:09;100181.81;;;10.33;100.00
54808;BME280;40708;50.364;7.550;2023-03-19T00:58:34;100180.94;;;10.32;100.00
54808;BME280;40708;50.364;7.550;2023-03-19T01:01:03;100186.22;;;10.34;100.00
54808;BME280;40708;50.364;7.550;2023-03-19T01:03:28;100191.53;;;10.34;100.00
54808;BME280;40708;50.364;7.550;2023-03-19T01:05:53;100188.00;;;10.29;100.00
54808;BME280;40708;50.364;7.550;2023-03-19T01:08:19;100194.19;;;10.25;100.00
54808;BME280;40708;50.364;7.550;2023-03-19T01:10:45;100193.31;;;10.26;100.00
54808;BME280;40708;50.364;7.550;2023-03-19T01:13:11;100194.19;;;10.26;100.00
54808;BME280;40708;50.364;7.550;2023-03-19T01:15:41;100193.31;;;10.23;100.00
54808;BME280;40708;50.364;7.550;2023-03-19T01:18:08;100195.97;;;10.23;100.00
54808;BME280;40708;50.364;7.550;2023-03-19T01:20:34;100189.78;;;10.22;100.00
54808;BME280;40708;50.364;7.550;2023-03-19T01:22:59;100190.69;;;10.21;100.00
54808;BME280;40708;50.364;7.550;2023-03-19T01:25:26;100198.63;;;10.21;100.00
54808;BME280;40708;50.364;7.550;2023-03-19T01:27:51;100195.13;;;10.19;100.00
54808;BME280;40708;50.364;7.550;2023-03-19T01:30:17;100196.84;;;10.09;100.00
54808;BME280;40708;50.364;7.550;2023-03-19T01:32:42;100199.50;;;10.06;100.00
54808;BME280;40708;50.364;7.550;2023-03-19T01:35:08;100203.03;;;10.04;100.00
54808;BME280;40708;50.364;7.550;2023-03-19T01:37:34;100190.69;;;10.04;100.00
54808;BME280;40708;50.364;7.550;2023-03-19T01:39:59;100202.16;;;10.02;100.00
54808;BME280;40708;50.364;7.550;2023-03-19T01:42:25;100199.53;;;9.99;100.00
54808;BME280;40708;50.364;7.550;2023-03-19T01:44:50;100198.66;;;10.00;100.00
54808;BME280;40708;50.364;7.550;2023-03-19T01:47:18;100186.25;;;10.02;100.00
54808;BME280;40708;50.364;7.550;2023-03-19T01:49:52;100190.66;;;10.06;100.00
54808;BME280;40708;50.364;7.550;2023-03-19T01:52:18;100184.50;;;10.05;100.00
54808;BME280;40708;50.364;7.550;2023-03-19T01:54:44;100192.41;;;10.08;100.00
54808;BME280;40708;50.364;7.550;2023-03-19T01:57:11;100184.47;;;10.10;100.00
54808;BME280;40708;50.364;7.550;2023-03-19T01:59:44;100193.31;;;10.12;100.00
54808;BME280;40708;50.364;7.550;2023-03-19T02:02:26;100189.78;;;10.10;100.00
54808;BME280;40708;50.364;7.550;2023-03-19T02:04:57;100187.16;;;10.05;100.00
54808;BME280;40708;50.364;7.550;2023-03-19T02:07:25;100174.78;;;10.04;100.00
54808;BME280;40708;50.364;7.550;2023-03-19T02:09:51;100178.31;;;10.00;100.00
54808;BME280;40708;50.364;7.550;2023-03-19T02:12:17;100174.78;;;9.94;100.00
54808;BME280;40708;50.364;7.550;2023-03-19T02:14:42;100177.47;;;9.86;100.00
54808;BME280;40708;50.364;7.550;2023-03-19T02:17:08;100185.41;;;9.77;100.00
54808;BME280;40708;50.364;7.550;2023-03-19T02:19:42;100189.81;;;9.60;100.00
54808;BME280;40708;50.364;7.550;2023-03-19T02:22:13;100196.88;;;9.50;100.00
54808;BME280;40708;50.364;7.550;2023-03-19T02:24:57;100210.13;;;9.40;100.00
54808;BME280;40708;50.364;7.550;2023-03-19T02:27:24;100211.88;;;9.29;100.00
54808;BME280;40708;50.364;7.550;2023-03-19T02:29:50;100211.78;;;9.11;100.00
54808;BME280;40708;50.364;7.550;2023-03-19T02:32:15;100212.66;;;9.05;100.00
54808;BME280;40708;50.364;7.550;2023-03-19T02:34:42;100217.94;;;8.96;100.00
54808;BME280;40708;50.364;7.550;2023-03-19T02:37:18;100214.38;;;8.85;100.00
54808;BME280;40708;50.364;7.550;2023-03-19T02:39:49;100217.91;;;8.87;100.00
54808;BME280;40708;50.364;7.550;2023-03-19T02:42:17;100215.31;;;9.01;100.00
54808;BME280;40708;50.364;7.550;2023-03-19T02:44:43;100222.41;;;9.09;100.00
54808;BME280;40708;50.364;7.550;2023-03-19T02:47:10;100220.56;;;8.91;100.00
54808;BME280;40708;50.364;7.550;2023-03-19T02:49:35;100224.06;;;8.86;100.00
54808;BME280;40708;50.364;7.550;2023-03-19T02:52:00;100221.38;;;8.69;100.00
54808;BME280;40708;50.364;7.550;2023-03-19T02:54:26;100228.38;;;8.63;100.00
54808;BME280;40708;50.364;7.550;2023-03-19T02:56:51;100223.03;;;8.54;100.00
54808;BME280;40708;50.364;7.550;2023-03-19T02:59:17;100218.56;;;8.41;100.00
54808;BME280;40708;50.364;7.550;2023-03-19T03:01:42;100228.19;;;8.29;100.00
54808;BME280;40708;50.364;7.550;2023-03-19T03:04:08;100234.28;;;8.18;100.00
54808;BME280;40708;50.364;7.550;2023-03-19T03:06:33;100248.31;;;8.09;100.00
54808;BME280;40708;50.364;7.550;2023-03-19T03:08:59;100255.28;;;8.03;100.00
54808;BME280;40708;50.364;7.550;2023-03-19T03:11:24;100264.91;;;7.93;100.00
54808;BME280;40708;50.364;7.550;2023-03-19T03:13:50;100256.91;;;7.84;100.00
54808;BME280;40708;50.364;7.550;2023-03-19T03:16:15;100267.38;;;7.73;100.00
54808;BME280;40708;50.364;7.550;2023-03-19T03:18:41;100279.63;;;7.65;100.00
54808;BME280;40708;50.364;7.550;2023-03-19T03:21:06;100276.03;;;7.59;100.00
54808;BME280;40708;50.364;7.550;2023-03-19T03:23:32;100281.25;;;7.53;100.00
54808;BME280;40708;50.364;7.550;2023-03-19T03:25:57;100281.22;;;7.47;100.00
54808;BME280;40708;50.364;7.550;2023-03-19T03:28:23;100282.06;;;7.46;100.00
54808;BME280;40708;50.364;7.550;2023-03-19T03:30:48;100290.09;;;7.55;100.00
54808;BME280;40708;50.364;7.550;2023-03-19T03:33:14;100292.69;;;7.53;100.00
54808;BME280;40708;50.364;7.550;2023-03-19T03:35:40;100299.72;;;7.51;100.00
54808;BME280;40708;50.364;7.550;2023-03-19T03:38:06;100301.44;;;7.48;100.00
54808;BME280;40708;50.364;7.550;2023-03-19T03:40:31;100305.00;;;7.50;100.00
54808;BME280;40708;50.364;7.550;2023-03-19T03:42:58;100297.19;;;7.60;100.00
54808;BME280;40708;50.364;7.550;2023-03-19T03:45:23;100295.44;;;7.62;100.00
54808;BME280;40708;50.364;7.550;2023-03-19T03:47:49;100295.50;;;7.70;100.00
54808;BME280;40708;50.364;7.550;2023-03-19T03:50:15;100296.44;;;7.73;100.00
54808;BME280;40708;50.364;7.550;2023-03-19T03:52:41;100302.75;;;7.91;100.00
54808;BME280;40708;50.364;7.550;2023-03-19T03:55:07;100301.94;;;8.02;100.00
54808;BME280;40708;50.364;7.550;2023-03-19T03:57:33;100305.47;;;8.03;100.00
54808;BME280;40708;50.364;7.550;2023-03-19T03:59:58;100306.34;;;8.00;100.00
54808;BME280;40708;50.364;7.550;2023-03-19T04:02:23;100313.41;;;8.01;100.00
54808;BME280;40708;50.364;7.550;2023-03-19T04:04:49;100316.00;;;7.95;100.00
54808;BME280;40708;50.364;7.550;2023-03-19T04:07:16;100322.19;;;8.02;100.00
54808;BME280;40708;50.364;7.550;2023-03-19T04:09:41;100314.34;;;8.06;100.00
54808;BME280;40708;50.364;7.550;2023-03-19T04:12:07;100314.34;;;8.11;100.00
54808;BME280;40708;50.364;7.550;2023-03-19T04:14:32;100323.19;;;8.16;100.00
54808;BME280;40708;50.364;7.550;2023-03-19T04:16:57;100313.56;;;8.18;100.00
54808;BME280;40708;50.364;7.550;2023-03-19T04:19:23;100306.50;;;8.21;100.00
54808;BME280;40708;50.364;7.550;2023-03-19T04:21:48;100303.91;;;8.24;100.00
54808;BME280;40708;50.364;7.550;2023-03-19T04:24:13;100303.97;;;8.30;100.00
54808;BME280;40708;50.364;7.550;2023-03-19T04:26:39;100298.69;;;8.30;100.00
54808;BME280;40708;50.364;7.550;2023-03-19T04:29:05;100296.06;;;8.32;100.00
54808;BME280;40708;50.364;7.550;2023-03-19T04:31:30;100296.03;;;8.27;100.00
54808;BME280;40708;50.364;7.550;2023-03-19T04:33:55;100291.56;;;8.26;100.00
54808;BME280;40708;50.364;7.550;2023-03-19T04:36:21;100290.72;;;8.26;100.00
54808;BME280;40708;50.364;7.550;2023-03-19T04:38:46;100285.44;;;8.26;100.00
54808;BME280;40708;50.364;7.550;2023-03-19T04:41:13;100282.78;;;8.26;100.00
54808;BME280;40708;50.364;7.550;2023-03-19T04:43:40;100284.53;;;8.25;100.00
54808;BME280;40708;50.364;7.550;2023-03-19T04:46:05;100284.50;;;8.22;100.00
54808;BME280;40708;50.364;7.550;2023-03-19T04:48:32;100288.91;;;8.22;100.00
54808;BME280;40708;50.364;7.550;2023-03-19T04:51:02;100294.19;;;8.22;100.00
54808;BME280;40708;50.364;7.550;2023-03-19T04:53:28;100297.72;;;8.24;100.00
54808;BME280;40708;50.364;7.550;2023-03-19T04:55:53;100303.91;;;8.24;100.00
54808;BME280;40708;50.364;7.550;2023-03-19T04:58:19;100316.22;;;8.22;100.00
54808;BME280;40708;50.364;7.550;2023-03-19T05:00:44;100314.41;;;8.18;100.00
54808;BME280;40708;50.364;7.550;2023-03-19T05:03:12;100323.22;;;8.17;100.00
54808;BME280;40708;50.364;7.550;2023-03-19T05:05:37;100322.31;;;8.12;100.00
54808;BME280;40708;50.364;7.550;2023-03-19T05:08:03;100319.66;;;8.14;100.00
54808;BME280;40708;50.364;7.550;2023-03-19T05:10:28;100332.88;;;8.14;100.00
54808;BME280;40708;50.364;7.550;2023-03-19T05:12:54;100328.47;;;8.13;100.00
54808;BME280;40708;50.364;7.550;2023-03-19T05:15:19;100330.25;;;8.12;100.00
54808;BME280;40708;50.364;7.550;2023-03-19T05:17:44;100337.25;;;8.10;100.00
54808;BME280;40708;50.364;7.550;2023-03-19T05:20:10;100342.50;;;8.06;100.00
54808;BME280;40708;50.364;7.550;2023-03-19T05:22:36;100338.16;;;8.09;100.00
54808;BME280;40708;50.364;7.550;2023-03-19T05:25:02;100344.31;;;8.10;100.00
54808;BME280;40708;50.364;7.550;2023-03-19T05:27:28;100345.19;;;8.10;100.00
54808;BME280;40708;50.364;7.550;2023-03-19T05:29:53;100349.81;;;8.31;100.00
54808;BME280;40708;50.364;7.550;2023-03-19T05:32:18;100334.25;;;8.81;100.00
54808;BME280;40708;50.364;7.550;2023-03-19T05:34:44;100311.50;;;9.12;100.00
54808;BME280;40708;50.364;7.550;2023-03-19T05:37:09;100306.28;;;9.31;100.00
54808;BME280;40708;50.364;7.550;2023-03-19T05:39:35;100300.03;;;9.19;100.00
54808;BME280;40708;50.364;7.550;2023-03-19T05:42:00;100295.63;;;9.10;100.00
54808;BME280;40708;50.364;7.550;2023-03-19T05:44:25;100297.31;;;8.97;100.00
54808;BME280;40708;50.364;7.550;2023-03-19T05:46:51;100292.00;;;8.90;100.00
54808;BME280;40708;50.364;7.550;2023-03-19T05:49:17;100301.72;;;8.92;100.00
54808;BME280;40708;50.364;7.550;2023-03-19T05:51:42;100299.94;;;8.85;100.00
54808;BME280;40708;50.364;7.550;2023-03-19T05:54:08;100305.13;;;8.73;100.00
54808;BME280;40708;50.364;7.550;2023-03-19T05:56:33;100317.44;;;8.64;100.00
54808;BME280;40708;50.364;7.550;2023-03-19T05:58:58;100324.50;;;8.68;100.00
54808;BME280;40708;50.364;7.550;2023-03-19T06:01:24;100333.34;;;8.71;100.00
54808;BME280;40708;50.364;7.550;2023-03-19T06:03:49;100332.47;;;8.75;100.00
54808;BME280;40708;50.364;7.550;2023-03-19T06:06:14;100339.59;;;8.82;100.00
54808;BME280;40708;50.364;7.550;2023-03-19T06:08:40;100329.88;;;8.86;100.00
54808;BME280;40708;50.364;7.550;2023-03-19T06:11:06;100333.41;;;8.86;100.00
54808;BME280;40708;50.364;7.550;2023-03-19T06:13:31;100331.75;;;9.04;100.00
54808;BME280;40708;50.364;7.550;2023-03-19T06:15:56;100325.63;;;9.17;100.00
54808;BME280;40708;50.364;7.550;2023-03-19T06:18:22;100322.16;;;9.30;100.00
54808;BME280;40708;50.364;7.550;2023-03-19T06:20:47;100323.97;;;9.44;100.00
54808;BME280;40708;50.364;7.550;2023-03-19T06:23:13;100332.81;;;9.48;100.00
54808;BME280;40708;50.364;7.550;2023-03-19T06:25:38;100325.75;;;9.51;100.00
54808;BME280;40708;50.364;7.550;2023-03-19T06:28:04;100327.53;;;9.52;100.00
54808;BME280;40708;50.364;7.550;2023-03-19T06:30:30;100331.06;;;9.54;100.00
54808;BME280;40708;50.364;7.550;2023-03-19T06:32:55;100327.53;;;9.60;100.00
54808;BME280;40708;50.364;7.550;2023-03-19T06:35:21;100323.13;;;9.53;100.00
54808;BME280;40708;50.364;7.550;2023-03-19T06:37:46;100321.31;;;9.49;100.00
54808;BME280;40708;50.364;7.550;2023-03-19T06:40:13;100324.88;;;9.60;100.00
54808;BME280;40708;50.364;7.550;2023-03-19T06:42:39;100320.47;;;9.56;100.00
54808;BME280;40708;50.364;7.550;2023-03-19T06:45:05;100323.13;;;9.62;100.00
54808;BME280;40708;50.364;7.550;2023-03-19T06:47:31;100324.03;;;9.67;100.00
54808;BME280;40708;50.364;7.550;2023-03-19T06:49:57;100322.25;;;9.62;100.00
54808;BME280;40708;50.364;7.550;2023-03-19T06:52:22;100321.38;;;9.61;100.00
54808;BME280;40708;50.364;7.550;2023-03-19T06:54:48;100327.53;;;9.60;100.00
54808;BME280;40708;50.364;7.550;2023-03-19T06:57:13;100333.75;;;9.59;100.00
54808;BME280;40708;50.364;7.550;2023-03-19T06:59:38;100345.19;;;9.63;100.00
54808;BME280;40708;50.364;7.550;2023-03-19T07:02:03;100356.66;;;9.60;100.00
54808;BME280;40708;50.364;7.550;2023-03-19T07:04:29;100366.38;;;9.55;100.00
54808;BME280;40708;50.364;7.550;2023-03-19T07:06:55;100364.59;;;9.51;100.00
54808;BME280;40708;50.364;7.550;2023-03-19T07:09:20;100370.78;;;9.57;100.00
54808;BME280;40708;50.364;7.550;2023-03-19T07:11:45;100375.25;;;9.62;100.00
54808;BME280;40708;50.364;7.550;2023-03-19T07:14:11;100369.97;;;9.69;100.00
54808;BME280;40708;50.364;7.550;2023-03-19T07:16:36;100376.16;;;9.73;100.00
54808;BME280;40708;50.364;7.550;2023-03-19T07:19:02;100376.16;;;9.82;100.00
54808;BME280;40708;50.364;7.550;2023-03-19T07:21:27;100368.22;;;9.85;100.00
54808;BME280;40708;50.364;7.550;2023-03-19T07:23:53;100366.47;;;9.91;100.00
54808;BME280;40708;50.364;7.550;2023-03-19T07:26:18;100367.34;;;9.93;100.00
54808;BME280;40708;50.364;7.550;2023-03-19T07:28:43;100369.16;;;10.05;100.00
54808;BME280;40708;50.364;7.550;2023-03-19T07:31:09;100367.44;;;10.16;100.00
54808;BME280;40708;50.364;7.550;2023-03-19T07:33:34;100364.78;;;10.31;100.00
54808;BME280;40708;50.364;7.550;2023-03-19T07:36:00;100340.91;;;10.45;100.00
54808;BME280;40708;50.364;7.550;2023-03-19T07:38:25;100337.34;;;10.50;100.00
54808;BME280;40708;50.364;7.550;2023-03-19T07:40:50;100335.56;;;10.63;100.00
54808;BME280;40708;50.364;7.550;2023-03-19T07:43:16;100325.84;;;10.68;100.00
54808;BME280;40708;50.364;7.550;2023-03-19T07:45:41;100321.41;;;10.77;100.00
54808;BME280;40708;50.364;7.550;2023-03-19T07:48:07;100324.88;;;10.90;100.00
54808;BME280;40708;50.364;7.550;2023-03-19T07:50:33;100327.50;;;11.04;100.00
54808;BME280;40708;50.364;7.550;2023-03-19T07:52:58;100333.66;;;11.16;100.00
54808;BME280;40708;50.364;7.550;2023-03-19T07:55:24;100333.63;;;11.22;100.00
54808;BME280;40708;50.364;7.550;2023-03-19T07:57:49;100339.91;;;11.05;100.00
54808;BME280;40708;50.364;7.550;2023-03-19T08:00:15;100342.53;;;11.06;100.00
54808;BME280;40708;50.364;7.550;2023-03-19T08:02:41;100350.44;;;11.20;100.00
54808;BME280;40708;50.364;7.550;2023-03-19T08:05:07;100352.16;;;11.39;100.00
54808;BME280;40708;50.364;7.550;2023-03-19T08:07:33;100360.06;;;11.54;100.00
54808;BME280;40708;50.364;7.550;2023-03-19T08:09:59;100352.03;;;11.71;100.00
54808;BME280;40708;50.364;7.550;2023-03-19T08:12:24;100358.97;;;11.93;100.00
54808;BME280;40708;50.364;7.550;2023-03-19T08:14:50;100358.03;;;12.03;100.00
54808;BME280;40708;50.364;7.550;2023-03-19T08:17:16;100353.53;;;12.13;100.00
54808;BME280;40708;50.364;7.550;2023-03-19T08:19:42;100341.16;;;12.09;100.00
54808;BME280;40708;50.364;7.550;2023-03-19T08:22:08;100343.63;;;12.31;100.00
54808;BME280;40708;50.364;7.550;2023-03-19T08:24:33;100328.56;;;12.29;100.00
54808;BME280;40708;50.364;7.550;2023-03-19T08:26:59;100340.88;;;12.43;100.00
54808;BME280;40708;50.364;7.550;2023-03-19T08:29:24;100335.41;;;12.55;100.00
54808;BME280;40708;50.364;7.550;2023-03-19T08:31:53;100338.97;;;12.58;100.00
54808;BME280;40708;50.364;7.550;2023-03-19T08:34:20;100338.91;;;12.64;100.00
54808;BME280;40708;50.364;7.550;2023-03-19T08:36:46;100333.59;;;12.64;100.00
54808;BME280;40708;50.364;7.550;2023-03-19T08:39:11;100330.97;;;12.61;100.00
54808;BME280;40708;50.364;7.550;2023-03-19T08:41:37;100330.84;;;12.70;100.00
54808;BME280;40708;50.364;7.550;2023-03-19T08:44:02;100330.69;;;12.88;100.00
54808;BME280;40708;50.364;7.550;2023-03-19T08:46:28;100329.63;;;13.07;100.00
54808;BME280;40708;50.364;7.550;2023-03-19T08:48:54;100323.34;;;13.11;100.00
54808;BME280;40708;50.364;7.550;2023-03-19T08:51:19;100319.72;;;13.17;100.00
54808;BME280;40708;50.364;7.550;2023-03-19T08:53:45;100319.69;;;13.18;100.00
54808;BME280;40708;50.364;7.550;2023-03-19T08:56:10;100324.91;;;13.29;100.00
54808;BME280;40708;50.364;7.550;2023-03-19T08:58:35;100326.84;;;13.15;100.00
54808;BME280;40708;50.364;7.550;2023-03-19T09:01:06;100330.56;;;12.98;100.00
54808;BME280;40708;50.364;7.550;2023-03-19T09:03:33;100327.78;;;13.10;100.00
54808;BME280;40708;50.364;7.550;2023-03-19T09:06:03;100343.09;;;12.87;100.00
54808;BME280;40708;50.364;7.550;2023-03-19T09:08:30;100356.41;;;12.86;100.00
54808;BME280;40708;50.364;7.550;2023-03-19T09:10:56;100365.28;;;12.91;100.00
54808;BME280;40708;50.364;7.550;2023-03-19T09:13:22;100370.75;;;12.74;100.00
54808;BME280;40708;50.364;7.550;2023-03-19T09:15:48;100376.06;;;12.76;100.00
54808;BME280;40708;50.364;7.550;2023-03-19T09:18:14;100371.69;;;12.67;100.00
54808;BME280;40708;50.364;7.550;2023-03-19T09:20:40;100383.34;;;12.54;100.00
54808;BME280;40708;50.364;7.550;2023-03-19T09:23:06;100388.53;;;12.69;100.00
54808;BME280;40708;50.364;7.550;2023-03-19T09:25:31;100391.19;;;12.69;100.00
54808;BME280;40708;50.364;7.550;2023-03-19T09:27:57;100391.25;;;12.62;100.00
54808;BME280;40708;50.364;7.550;2023-03-19T09:30:22;100398.53;;;12.44;100.00
54808;BME280;40708;50.364;7.550;2023-03-19T09:32:47;100405.59;;;12.45;100.00
54808;BME280;40708;50.364;7.550;2023-03-19T09:35:13;100402.03;;;12.45;100.00
54808;BME280;40708;50.364;7.550;2023-03-19T09:37:38;100409.19;;;12.40;100.00
54808;BME280;40708;50.364;7.550;2023-03-19T09:40:04;100408.22;;;12.50;100.00
54808;BME280;40708;50.364;7.550;2023-03-19T09:45:26;100405.69;;;12.36;100.00
54808;BME280;40708;50.364;7.550;2023-03-19T09:47:56;100404.72;;;12.42;100.00
54808;BME280;40708;50.364;7.550;2023-03-19T09:50:25;100417.31;;;12.22;100.00
54808;BME280;40708;50.364;7.550;2023-03-19T09:53:00;100413.84;;;12.09;100.00
54808;BME280;40708;50.364;7.550;2023-03-19T09:57:56;100428.88;;;12.10;100.00
54808;BME280;40708;50.364;7.550;2023-03-19T10:00:27;100433.41;;;12.01;100.00
54808;BME280;40708;50.364;7.550;2023-03-19T10:03:00;100433.50;;;11.81;100.00
54808;BME280;40708;50.364;7.550;2023-03-19T10:11:16;100445.91;;;11.79;100.00
54808;BME280;40708;50.364;7.550;2023-03-19T10:16:40;100469.84;;;11.74;100.00
54808;BME280;40708;50.364;7.550;2023-03-19T10:19:08;100476.91;;;11.63;100.00
54808;BME280;40708;50.364;7.550;2023-03-19T10:21:42;100492.00;;;11.63;100.00
54808;BME280;40708;50.364;7.550;2023-03-19T10:24:23;100515.91;;;11.63;100.00
54808;BME280;40708;50.364;7.550;2023-03-19T10:26:58;100500.84;;;11.63;100.00
54808;BME280;40708;50.364;7.550;2023-03-19T10:29:24;100517.69;;;11.65;100.00
54808;BME280;40708;50.364;7.550;2023-03-19T10:34:32;100521.22;;;11.64;100.00
54808;BME280;40708;50.364;7.550;2023-03-19T10:39:42;100523.00;;;11.79;100.00
54808;BME280;40708;50.364;7.550;2023-03-19T10:42:45;100529.13;;;11.94;100.00
54808;BME280;40708;50.364;7.550;2023-03-19T10:45:25;100529.94;;;12.13;100.00
54808;BME280;40708;50.364;7.550;2023-03-19T10:47:51;100519.31;;;12.12;100.00
54808;BME280;40708;50.364;7.550;2023-03-19T10:53:02;100518.25;;;12.44;100.00
54808;BME280;40708;50.364;7.550;2023-03-19T10:55:30;100505.84;;;12.43;100.00
54808;BME280;40708;50.364;7.550;2023-03-19T10:58:05;100496.06;;;12.50;100.00
54808;BME280;40708;50.364;7.550;2023-03-19T11:00:33;100499.34;;;12.84;100.00
54808;BME280;40708;50.364;7.550;2023-03-19T11:03:00;100486.03;;;12.82;100.00
54808;BME280;40708;50.364;7.550;2023-03-19T11:05:30;100485.13;;;12.88;100.00
54808;BME280;40708;50.364;7.550;2023-03-19T11:08:13;100467.22;;;13.03;100.00
54808;BME280;40708;50.364;7.550;2023-03-19T11:10:46;100483.16;;;13.11;100.00
54808;BME280;40708;50.364;7.550;2023-03-19T11:13:19;100481.53;;;12.90;100.00
54808;BME280;40708;50.364;7.550;2023-03-19T11:15:47;100490.38;;;12.92;100.00
54808;BME280;40708;50.364;7.550;2023-03-19T11:18:36;100488.50;;;13.02;100.00
54808;BME280;40708;50.364;7.550;2023-03-19T11:21:28;100487.66;;;13.01;100.00
54808;BME280;40708;50.364;7.550;2023-03-19T11:24:02;100496.69;;;12.81;100.00
54808;BME280;40708;50.364;7.550;2023-03-19T11:26:28;100480.88;;;12.63;100.00
54808;BME280;40708;50.364;7.550;2023-03-19T11:28:59;100491.56;;;12.55;100.00
54808;BME280;40708;50.364;7.550;2023-03-19T11:44:33;100513.94;;;12.21;100.00
54808;BME280;40708;50.364;7.550;2023-03-19T11:52:59;100515.75;;;12.10;100.00
54808;BME280;40708;50.364;7.550;2023-03-19T11:55:39;100522.88;;;12.09;100.00
54808;BME280;40708;50.364;7.550;2023-03-19T11:58:40;100527.25;;;12.19;100.00
54808;BME280;40708;50.364;7.550;2023-03-19T12:01:46;100528.97;;;12.31;100.00
54808;BME280;40708;50.364;7.550;2023-03-19T12:06:57;100526.09;;;12.66;100.00
54808;BME280;40708;50.364;7.550;2023-03-19T12:12:20;100507.16;;;13.09;100.00
54808;BME280;40708;50.364;7.550;2023-03-19T12:15:02;100497.06;;;13.40;100.00
54808;BME280;40708;50.364;7.550;2023-03-19T12:23:03;100469.59;;;13.37;100.00
54808;BME280;40708;50.364;7.550;2023-03-19T12:28:22;100455.66;;;13.06;100.00
54808;BME280;40708;50.364;7.550;2023-03-19T12:31:22;100461.72;;;13.25;100.00
54808;BME280;40708;50.364;7.550;2023-03-19T12:34:18;100458.88;;;13.41;100.00
54808;BME280;40708;50.364;7.550;2023-03-19T12:36:53;100449.78;;;13.60;100.00
54808;BME280;40708;50.364;7.550;2023-03-19T12:39:25;100452.09;;;13.86;100.00
54808;BME280;40708;50.364;7.550;2023-03-19T12:41:56;100452.69;;;14.09;100.00
54808;BME280;40708;50.364;7.550;2023-03-19T12:44:30;100433.75;;;14.27;100.00
54808;BME280;40708;50.364;7.550;2023-03-19T12:47:03;100427.47;;;14.33;100.00
54808;BME280;40708;50.364;7.550;2023-03-19T12:52:16;100412.94;;;14.54;100.00
54808;BME280;40708;50.364;7.550;2023-03-19T12:57:40;100395.94;;;15.08;100.00
54808;BME280;40708;50.364;7.550;2023-03-19T13:00:31;100395.59;;;15.25;100.00
54808;BME280;40708;50.364;7.550;2023-03-19T13:03:12;100388.28;;;15.34;100.00
54808;BME280;40708;50.364;7.550;2023-03-19T13:05:59;100383.50;;;15.06;100.00
54808;BME280;40708;50.364;7.550;2023-03-19T13:08:32;100395.22;;;14.99;100.00
54808;BME280;40708;50.364;7.550;2023-03-19T13:11:04;100386.00;;;15.16;100.00
54808;BME280;40708;50.364;7.550;2023-03-19T13:13:47;100377.66;;;15.31;100.00
54808;BME280;40708;50.364;7.550;2023-03-19T13:16:29;100379.59;;;15.23;100.00
54808;BME280;40708;50.364;7.550;2023-03-19T13:19:12;100362.38;;;14.94;100.00
54808;BME280;40708;50.364;7.550;2023-03-19T13:21:40;100372.38;;;14.82;100.00
54808;BME280;40708;50.364;7.550;2023-03-19T13:24:33;100372.00;;;15.02;100.00
54808;BME280;40708;50.364;7.550;2023-03-19T13:27:00;100369.09;;;14.65;100.00
54808;BME280;40708;50.364;7.550;2023-03-19T13:29:30;100372.31;;;14.85;100.00
54808;BME280;40708;50.364;7.550;2023-03-19T13:32:00;100371.28;;;14.93;100.00
54808;BME280;40708;50.364;7.550;2023-03-19T13:34:27;100363.50;;;14.80;100.00
54808;BME280;40708;50.364;7.550;2023-03-19T13:39:28;100373.19;;;14.84;100.00
54808;BME280;40708;50.364;7.550;2023-03-19T13:44:51;100376.91;;;14.77;100.00
54808;BME280;40708;50.364;7.550;2023-03-19T13:50:18;100362.72;;;14.74;100.00
54808;BME280;40708;50.364;7.550;2023-03-19T13:53:09;100367.22;;;14.72;100.00
54808;BME280;40708;50.364;7.550;2023-03-19T13:55:52;100360.78;;;14.82;100.00
54808;BME280;40708;50.364;7.550;2023-03-19T13:58:24;100363.34;;;14.88;100.00